Terminal Aerodrome Forecast
Issued by NWS Twin Cities, MN

Home | Current Version | Previous Version | Graphics & Text | Print | Product List | Glossary On
Versions: 1 2 3 4 5 6 7 8 9 10 11 12 13 14 15 16 17 18 19 20 21 22 23 24 25 26 27 28
000
FTUS43 KMPX 180500
TAFMSP
TAF
KMSP 180529Z 1806/1912 14006KT P6SM VCSH SCT012 BKN025
     FM180900 17002KT 5SM -DZ BR OVC006
     FM181500 21005KT 5SM -SHRA BR OVC012
      TEMPO 1815/1819 2SM +TSRA BKN012CB OVC020
     FM181900 24009KT P6SM -SHRA VCTS OVC050CB
     FM190000 27005KT P6SM BKN050 OVC250=

USA.gov is the U.S. government's official web portal to all federal, state and local government web resources and services.